createdAt,value
2018-08-22T00:01:15.204Z,10.33
2018-08-22T00:03:43.588Z,10.50
2018-08-22T00:06:11.996Z,9.80
2018-08-22T00:08:44.680Z,9.63
2018-08-22T00:11:13.893Z,9.60
2018-08-22T00:13:43.317Z,10.03
2018-08-22T00:16:11.728Z,10.23
2018-08-22T00:18:40.110Z,9.70
2018-08-22T00:21:08.530Z,9.50
2018-08-22T00:23:36.934Z,10.47
2018-08-22T00:26:05.680Z,9.63
2018-08-22T00:28:34.315Z,9.83
2018-08-22T00:31:02.834Z,9.87
2018-08-22T00:33:31.311Z,9.73
2018-08-22T00:35:59.754Z,10.20
2018-08-22T00:38:28.152Z,10.93
2018-08-22T00:40:56.632Z,10.20
2018-08-22T00:43:25.048Z,9.50
2018-08-22T00:45:53.481Z,10.07
2018-08-22T00:48:21.921Z,11.23
2018-08-22T00:50:50.354Z,9.60
2018-08-22T00:53:18.760Z,10.40
2018-08-22T00:55:53.849Z,10.33
2018-08-22T00:58:22.364Z,10.07
2018-08-22T01:00:50.838Z,10.30
2018-08-22T01:03:19.245Z,10.50
2018-08-22T01:05:47.741Z,10.73
2018-08-22T01:08:16.156Z,10.37
2018-08-22T01:10:44.537Z,10.27
2018-08-22T01:13:12.928Z,10.70
2018-08-22T01:15:41.379Z,10.03
2018-08-22T01:18:10.010Z,10.13
2018-08-22T01:20:38.416Z,10.43
2018-08-22T01:23:06.946Z,10.40
2018-08-22T01:25:35.411Z,11.07
2018-08-22T01:28:04.049Z,10.87
2018-08-22T01:30:32.737Z,10.67
2018-08-22T01:33:01.198Z,12.10
2018-08-22T01:35:29.790Z,11.03
2018-08-22T01:37:58.222Z,11.30
2018-08-22T01:40:26.590Z,11.43
2018-08-22T01:42:54.998Z,11.80
2018-08-22T01:45:23.387Z,11.50
2018-08-22T01:47:51.799Z,11.80
2018-08-22T01:50:20.229Z,11.37
2018-08-22T01:52:48.608Z,11.53
2018-08-22T01:55:17.077Z,11.60
2018-08-22T01:57:45.486Z,10.93
2018-08-22T02:00:13.881Z,11.73
2018-08-22T02:02:42.331Z,11.07
2018-08-22T02:05:10.732Z,11.43
2018-08-22T02:07:39.144Z,11.50
2018-08-22T02:10:07.605Z,10.83
2018-08-22T02:12:36.139Z,11.00
2018-08-22T02:15:05.082Z,11.10
2018-08-22T02:17:33.560Z,11.63
2018-08-22T02:20:08.766Z,11.43
2018-08-22T02:22:37.272Z,12.03
2018-08-22T02:25:05.782Z,11.27
2018-08-22T02:27:34.140Z,12.10
2018-08-22T02:30:02.543Z,11.80
2018-08-22T02:32:30.952Z,12.13
2018-08-22T02:34:59.332Z,11.53
2018-08-22T02:37:27.776Z,11.90
2018-08-22T02:39:56.136Z,12.10
2018-08-22T02:42:24.521Z,12.10
2018-08-22T02:44:52.936Z,12.50
2018-08-22T02:47:21.330Z,11.87
2018-08-22T02:49:49.724Z,12.47
2018-08-22T02:52:18.200Z,12.30
2018-08-22T02:54:46.730Z,12.97
2018-08-22T02:57:15.238Z,13.13
2018-08-22T02:59:43.650Z,12.17
2018-08-22T03:02:12.121Z,12.80
2018-08-22T03:04:40.511Z,13.30
2018-08-22T03:07:09.079Z,13.63
2018-08-22T03:09:37.493Z,13.53
2018-08-22T03:12:05.934Z,13.37
2018-08-22T03:14:34.449Z,12.97
2018-08-22T03:17:02.906Z,14.10
2018-08-22T03:19:31.289Z,13.80
2018-08-22T03:21:59.649Z,13.57
2018-08-22T03:24:28.132Z,13.60
2018-08-22T03:26:56.565Z,15.07
2018-08-22T03:29:24.963Z,14.10
2018-08-22T03:31:53.547Z,14.13
2018-08-22T03:34:21.978Z,12.77
2018-08-22T03:36:50.638Z,15.53
2018-08-22T03:39:19.036Z,17.23
2018-08-22T03:41:47.432Z,19.17
2018-08-22T03:44:15.829Z,19.87
2018-08-22T03:46:44.256Z,18.07
2018-08-22T03:49:12.675Z,15.30
2018-08-22T03:51:41.081Z,14.67
2018-08-22T03:54:09.518Z,13.87
2018-08-22T03:56:38.005Z,13.87
2018-08-22T03:59:06.503Z,14.40
2018-08-22T04:01:34.961Z,13.97
2018-08-22T04:04:03.346Z,14.47
2018-08-22T04:06:31.719Z,14.53
2018-08-22T04:09:00.195Z,14.90
2018-08-22T04:11:28.741Z,13.93
2018-08-22T04:13:57.216Z,14.37
2018-08-22T04:16:25.718Z,13.90
2018-08-22T04:18:54.236Z,13.70
2018-08-22T04:21:22.615Z,14.43
2018-08-22T04:23:51.008Z,13.63
2018-08-22T04:26:19.399Z,13.33
2018-08-22T04:28:47.776Z,14.47
2018-08-22T04:31:16.166Z,13.20
2018-08-22T04:33:44.702Z,13.10
2018-08-22T04:36:13.088Z,14.43
2018-08-22T04:38:41.488Z,13.60
2018-08-22T04:41:09.980Z,14.50
2018-08-22T04:43:38.620Z,14.63
2018-08-22T04:46:07.116Z,14.80
2018-08-22T04:48:35.535Z,14.07
2018-08-22T04:51:04.008Z,13.90
2018-08-22T04:53:32.598Z,13.70
2018-08-22T04:56:01.078Z,13.20
2018-08-22T04:58:29.434Z,13.77
2018-08-22T05:00:57.861Z,13.47
2018-08-22T05:03:26.226Z,13.67
2018-08-22T05:05:54.696Z,13.70
2018-08-22T05:08:23.053Z,13.33
2018-08-22T05:10:51.456Z,14.27
2018-08-22T05:13:19.830Z,14.83
2018-08-22T05:15:48.254Z,13.90
2018-08-22T05:18:16.708Z,14.77
2018-08-22T05:20:45.272Z,14.73
2018-08-22T05:23:13.638Z,14.43
2018-08-22T05:25:42.084Z,13.90
2018-08-22T05:28:17.077Z,14.27
2018-08-22T05:30:45.660Z,14.17
2018-08-22T05:33:14.076Z,14.43
2018-08-22T05:35:42.518Z,14.80
2018-08-22T05:38:11.016Z,14.20
2018-08-22T05:40:39.754Z,14.30
2018-08-22T05:43:08.124Z,14.47
2018-08-22T05:45:36.691Z,14.07
2018-08-22T05:48:05.525Z,14.80
2018-08-22T05:50:34.096Z,13.73
2018-08-22T05:53:02.750Z,13.77
2018-08-22T05:55:31.308Z,15.03
2018-08-22T06:00:33.445Z,14.97
2018-08-22T06:03:01.891Z,13.20
2018-08-22T06:05:30.339Z,13.73
2018-08-22T06:07:58.820Z,13.10
2018-08-22T06:10:27.243Z,12.83
2018-08-22T06:12:55.669Z,13.07
2018-08-22T06:15:24.045Z,13.10
2018-08-22T06:17:52.533Z,11.80
2018-08-22T06:20:20.967Z,13.80
2018-08-22T06:22:49.456Z,15.57
2018-08-22T06:25:17.897Z,14.90
2018-08-22T06:27:46.403Z,14.50
2018-08-22T06:30:14.861Z,14.30
2018-08-22T06:32:43.248Z,13.63
2018-08-22T06:35:12.838Z,12.70
2018-08-22T06:37:41.357Z,15.10
2018-08-22T06:40:09.714Z,11.67
2018-08-22T06:42:38.144Z,11.40
2018-08-22T06:45:08.097Z,11.33
2018-08-22T06:47:36.499Z,10.80
2018-08-22T06:50:05.194Z,11.00
2018-08-22T06:52:33.563Z,10.20
2018-08-22T06:55:02.038Z,10.97
2018-08-22T06:57:30.396Z,14.47
2018-08-22T06:59:58.769Z,10.97
2018-08-22T07:02:32.523Z,10.27
2018-08-22T07:05:01.029Z,10.63
2018-08-22T07:07:29.860Z,10.90
2018-08-22T07:09:58.388Z,10.17
2018-08-22T07:12:26.833Z,10.37
2018-08-22T07:14:55.328Z,9.47
2018-08-22T07:17:23.828Z,9.47
2018-08-22T07:19:52.246Z,9.50
2018-08-22T07:22:20.634Z,9.27
2018-08-22T07:24:49.079Z,8.77
2018-08-22T07:27:17.532Z,9.27
2018-08-22T07:29:45.931Z,8.93
2018-08-22T07:32:14.339Z,9.07
2018-08-22T07:34:42.787Z,8.67
2018-08-22T07:37:11.170Z,8.70
2018-08-22T07:39:39.676Z,8.90
2018-08-22T07:42:08.084Z,9.17
2018-08-22T07:44:36.533Z,8.73
2018-08-22T07:47:05.142Z,8.57
2018-08-22T07:49:33.609Z,8.60
2018-08-22T07:52:02.061Z,9.23
2018-08-22T07:54:34.793Z,8.83
2018-08-22T07:57:03.209Z,9.30
2018-08-22T07:59:31.645Z,8.67
2018-08-22T08:02:00.189Z,8.73
2018-08-22T08:04:28.655Z,9.37
2018-08-22T08:06:57.053Z,8.27
2018-08-22T08:09:25.616Z,9.50
2018-08-22T08:11:54.146Z,10.47
2018-08-22T08:14:22.569Z,9.40
2018-08-22T08:16:51.021Z,9.27
2018-08-22T08:19:19.487Z,8.73
2018-08-22T08:21:47.917Z,9.10
2018-08-22T08:24:16.342Z,8.37
2018-08-22T08:26:44.722Z,8.50
2018-08-22T08:29:13.253Z,8.67
2018-08-22T08:31:41.714Z,9.57
2018-08-22T08:34:10.169Z,9.57
2018-08-22T08:36:38.680Z,9.17
2018-08-22T08:39:08.869Z,8.53
2018-08-22T08:41:37.507Z,9.30
2018-08-22T08:44:06.143Z,8.27
2018-08-22T08:46:34.595Z,8.73
2018-08-22T08:49:03.211Z,9.27
2018-08-22T08:51:31.675Z,9.17
2018-08-22T08:54:00.068Z,8.00
2018-08-22T08:56:28.594Z,8.07
2018-08-22T08:58:57.044Z,9.57
2018-08-22T09:01:25.444Z,8.73
2018-08-22T09:03:54.014Z,8.90
2018-08-22T09:06:22.554Z,8.73
2018-08-22T09:08:50.984Z,8.28
2018-08-22T09:11:19.353Z,8.70
2018-08-22T09:13:53.005Z,8.20
2018-08-22T09:16:22.239Z,9.28
2018-08-22T09:18:50.803Z,8.53
2018-08-22T09:21:19.246Z,8.50
2018-08-22T09:23:47.820Z,8.78
2018-08-22T09:26:16.323Z,8.40
2018-08-22T09:28:44.778Z,8.38
2018-08-22T09:31:13.205Z,8.80
2018-08-22T09:33:41.865Z,8.58
2018-08-22T09:36:10.276Z,8.23
2018-08-22T09:38:38.677Z,8.73
2018-08-22T09:41:07.077Z,8.70
2018-08-22T09:43:35.531Z,7.62
2018-08-22T09:46:04.010Z,8.45
2018-08-22T09:48:32.578Z,8.15
2018-08-22T09:51:01.047Z,8.35
2018-08-22T09:53:29.440Z,8.30
2018-08-22T09:55:57.868Z,7.80
2018-08-22T09:58:26.502Z,8.83
2018-08-22T10:01:00.250Z,8.63
2018-08-22T10:03:33.694Z,7.35
2018-08-22T10:06:02.126Z,8.18
2018-08-22T10:08:30.556Z,7.85
2018-08-22T10:10:58.935Z,7.65
2018-08-22T10:13:27.353Z,8.08
2018-08-22T10:15:55.823Z,7.65
2018-08-22T10:18:24.275Z,7.58
2018-08-22T10:20:52.707Z,7.47
2018-08-22T10:23:22.416Z,7.83
2018-08-22T10:25:50.855Z,8.03
2018-08-22T10:28:19.261Z,8.25
2018-08-22T10:30:47.706Z,7.22
2018-08-22T10:33:16.241Z,7.62
2018-08-22T10:35:44.827Z,7.50
2018-08-22T10:38:13.304Z,7.58
2018-08-22T10:40:41.721Z,7.67
2018-08-22T10:43:10.149Z,7.47
2018-08-22T10:45:38.590Z,7.50
2018-08-22T10:48:07.143Z,7.30
2018-08-22T10:50:35.525Z,8.18
2018-08-22T10:53:03.927Z,7.53
2018-08-22T10:55:32.356Z,7.67
2018-08-22T10:58:00.845Z,7.40
2018-08-22T11:00:29.719Z,7.42
2018-08-22T11:02:58.173Z,7.55
2018-08-22T11:05:26.672Z,7.58
2018-08-22T11:07:55.108Z,9.05
2018-08-22T11:10:23.590Z,7.30
2018-08-22T11:12:52.026Z,6.65
2018-08-22T11:15:20.557Z,7.15
2018-08-22T11:17:48.945Z,6.75
2018-08-22T11:20:17.412Z,7.10
2018-08-22T11:22:57.179Z,7.37
2018-08-22T11:25:36.865Z,7.58
2018-08-22T11:28:16.656Z,6.90
2018-08-22T11:30:56.577Z,8.08
2018-08-22T11:33:36.455Z,6.90
2018-08-22T11:36:03.867Z,7.87
2018-08-22T11:38:32.269Z,6.90
2018-08-22T11:41:00.677Z,6.90
2018-08-22T11:43:29.107Z,7.37
2018-08-22T11:45:57.496Z,6.95
2018-08-22T11:48:25.923Z,6.75
2018-08-22T11:50:54.357Z,7.97
2018-08-22T11:53:22.899Z,7.08
2018-08-22T11:55:51.346Z,6.78
2018-08-22T11:58:19.780Z,6.85
2018-08-22T12:00:48.202Z,6.67
2018-08-22T12:03:16.654Z,7.22
2018-08-22T12:05:45.079Z,7.03
2018-08-22T12:08:13.502Z,6.92
2018-08-22T12:10:42.023Z,7.33
2018-08-22T12:13:10.502Z,6.95
2018-08-22T12:15:40.162Z,6.72
2018-08-22T12:18:08.649Z,6.78
2018-08-22T12:20:37.085Z,7.30
2018-08-22T12:23:05.605Z,7.30
2018-08-22T12:25:34.011Z,6.90
2018-08-22T12:28:02.611Z,7.55
2018-08-22T12:30:31.172Z,6.95
2018-08-22T12:32:59.678Z,7.25
2018-08-22T12:35:28.109Z,6.87
2018-08-22T12:37:56.611Z,6.70
2018-08-22T12:40:25.138Z,7.15
2018-08-22T12:42:53.626Z,7.00
2018-08-22T12:45:22.123Z,6.90
2018-08-22T12:47:50.569Z,6.97
2018-08-22T12:50:19.078Z,6.55
2018-08-22T12:52:47.492Z,6.72
2018-08-22T12:55:15.893Z,6.72
2018-08-22T12:57:44.341Z,7.45
2018-08-22T13:00:12.799Z,6.78
2018-08-22T13:02:41.267Z,7.53
2018-08-22T13:05:09.730Z,6.80
2018-08-22T13:07:38.239Z,6.70
2018-08-22T13:10:06.921Z,6.92
2018-08-22T13:12:35.429Z,6.75
2018-08-22T13:15:04.234Z,6.80
2018-08-22T13:17:32.792Z,6.80
2018-08-22T13:20:01.372Z,7.08
2018-08-22T13:22:29.917Z,7.42
2018-08-22T13:24:58.415Z,6.95
2018-08-22T13:27:26.917Z,7.65
2018-08-22T13:29:55.416Z,7.40
2018-08-22T13:32:23.859Z,6.92
2018-08-22T13:34:52.298Z,7.07
2018-08-22T13:37:20.820Z,7.20
2018-08-22T13:39:49.366Z,7.57
2018-08-22T13:42:17.841Z,7.30
2018-08-22T13:44:46.220Z,7.20
2018-08-22T13:47:14.672Z,7.20
2018-08-22T13:49:43.077Z,6.97
2018-08-22T13:52:11.603Z,6.97
2018-08-22T13:54:40.013Z,6.97
2018-08-22T13:57:08.495Z,6.77
2018-08-22T13:59:37.076Z,7.20
2018-08-22T14:02:05.559Z,6.70
2018-08-22T14:04:34.732Z,7.23
2018-08-22T14:07:03.332Z,6.73
2018-08-22T14:09:31.751Z,7.10
2018-08-22T14:12:00.449Z,7.03
2018-08-22T14:14:28.880Z,7.27
2018-08-22T14:16:57.290Z,6.90
2018-08-22T14:19:25.787Z,7.03
2018-08-22T14:21:54.297Z,7.30
2018-08-22T14:24:22.680Z,7.40
2018-08-22T14:26:51.111Z,7.00
2018-08-22T14:29:19.623Z,6.77
2018-08-22T14:31:54.456Z,6.93
2018-08-22T14:34:22.985Z,7.43
2018-08-22T14:36:51.793Z,6.87
2018-08-22T14:39:20.308Z,7.10
2018-08-22T14:41:48.717Z,7.13
2018-08-22T14:44:17.211Z,7.87
2018-08-22T14:46:45.671Z,7.10
2018-08-22T14:49:14.183Z,6.87
2018-08-22T14:51:42.618Z,7.67
2018-08-22T14:54:11.079Z,7.17
2018-08-22T14:56:39.623Z,6.63
2018-08-22T14:59:08.176Z,7.17
2018-08-22T15:01:36.774Z,7.50
2018-08-22T15:04:05.267Z,6.97
2018-08-22T15:06:33.729Z,6.93
2018-08-22T15:09:07.545Z,6.67
2018-08-22T15:11:36.952Z,6.23
2018-08-22T15:14:05.981Z,6.67
2018-08-22T15:16:34.439Z,6.83
2018-08-22T15:19:03.128Z,6.73
2018-08-22T15:21:31.688Z,7.17
2018-08-22T15:24:00.162Z,7.00
2018-08-22T15:26:28.637Z,6.83
2018-08-22T15:28:57.134Z,6.73
2018-08-22T15:31:25.793Z,6.50
2018-08-22T15:33:54.239Z,6.50
2018-08-22T15:36:22.737Z,7.17
2018-08-22T15:38:51.136Z,6.93
2018-08-22T15:41:19.675Z,6.40
2018-08-22T15:43:48.049Z,6.80
2018-08-22T15:46:16.505Z,6.70
2018-08-22T15:48:44.953Z,7.00
2018-08-22T15:51:13.419Z,6.30
2018-08-22T15:53:41.954Z,6.87
2018-08-22T15:56:10.512Z,6.60
2018-08-22T15:58:39.023Z,6.67
2018-08-22T16:01:07.517Z,6.60
2018-08-22T16:03:35.887Z,5.93
2018-08-22T16:06:04.324Z,6.63
2018-08-22T16:08:32.762Z,6.43
2018-08-22T16:11:05.430Z,6.40
2018-08-22T16:13:33.886Z,6.43
2018-08-22T16:16:02.887Z,6.13
2018-08-22T16:18:33.685Z,5.70
2018-08-22T16:21:02.859Z,6.87
2018-08-22T16:23:33.407Z,6.20
2018-08-22T16:26:02.834Z,8.67
2018-08-22T16:28:42.811Z,40.77
2018-08-22T16:31:11.396Z,17.33
2018-08-22T16:33:39.809Z,7.40
2018-08-22T16:36:11.218Z,29.70
2018-08-22T16:38:39.703Z,6.40
2018-08-22T16:41:08.134Z,8.57
2018-08-22T16:43:43.674Z,6.50
2018-08-22T16:46:14.065Z,6.60
2018-08-22T16:48:43.935Z,6.40
2018-08-22T16:51:12.338Z,6.20
2018-08-22T16:53:40.872Z,5.87
2018-08-22T16:56:09.267Z,5.77
2018-08-22T16:58:37.804Z,6.43
2018-08-22T17:01:06.227Z,6.13
2018-08-22T17:03:34.726Z,6.53
2018-08-22T17:06:12.351Z,6.27
2018-08-22T17:08:40.859Z,6.10
2018-08-22T17:11:11.131Z,8.73
2018-08-22T17:13:44.206Z,7.53
2018-08-22T17:16:12.666Z,6.50
2018-08-22T17:18:41.179Z,6.27
2018-08-22T17:21:10.018Z,6.30
2018-08-22T17:23:38.646Z,6.60
2018-08-22T17:26:11.086Z,6.53
2018-08-22T17:28:41.287Z,6.10
2018-08-22T17:31:10.255Z,6.20
2018-08-22T17:33:41.031Z,6.57
2018-08-22T17:36:10.429Z,6.23
2018-08-22T17:38:41.325Z,6.50
2018-08-22T17:41:09.734Z,6.40
2018-08-22T17:44:10.145Z,6.17
2018-08-22T17:46:40.870Z,6.67
2018-08-22T17:49:09.400Z,6.40
2018-08-22T17:52:01.682Z,6.93
2018-08-22T17:54:30.083Z,6.77
2018-08-22T17:57:10.944Z,6.27
2018-08-22T17:59:40.098Z,6.40
2018-08-22T18:02:08.598Z,7.03
2018-08-22T18:04:48.239Z,6.70
2018-08-22T18:07:17.354Z,7.37
2018-08-22T18:09:46.783Z,7.00
2018-08-22T18:12:15.464Z,6.63
2018-08-22T18:14:44.091Z,8.33
2018-08-22T18:17:12.584Z,6.93
2018-08-22T18:19:41.090Z,7.10
2018-08-22T18:22:10.519Z,7.30
2018-08-22T18:24:58.142Z,9.63
2018-08-22T18:27:27.162Z,7.10
2018-08-22T18:29:55.541Z,7.10
2018-08-22T18:32:24.054Z,7.23
2018-08-22T18:35:04.723Z,8.07
2018-08-22T18:37:33.358Z,7.57
2018-08-22T18:40:24.600Z,7.17
2018-08-22T18:42:57.234Z,7.53
2018-08-22T18:45:26.356Z,8.57
2018-08-22T18:47:54.878Z,8.17
2018-08-22T18:50:23.376Z,7.53
2018-08-22T18:52:53.926Z,8.97
2018-08-22T18:55:25.511Z,8.20
2018-08-22T18:57:54.534Z,8.00
2018-08-22T19:00:23.118Z,8.00
2018-08-22T19:02:56.293Z,8.33
2018-08-22T19:05:29.313Z,7.80
2018-08-22T19:08:15.817Z,8.23
2018-08-22T19:10:46.512Z,8.27
2018-08-22T19:13:16.034Z,9.50
2018-08-22T19:15:55.239Z,8.10
2018-08-22T19:18:23.862Z,7.97
2018-08-22T19:21:00.908Z,8.17
2018-08-22T19:23:29.600Z,8.77
2018-08-22T19:25:58.784Z,9.23
2018-08-22T19:28:27.283Z,9.23
2018-08-22T19:30:55.754Z,8.73
2018-08-22T19:33:25.368Z,9.93
2018-08-22T19:35:53.964Z,9.17
2018-08-22T19:38:23.709Z,10.40
2018-08-22T19:40:52.271Z,11.93
2018-08-22T19:43:20.736Z,10.60
2018-08-22T19:45:49.218Z,11.43
2018-08-22T19:48:22.053Z,27.77
2018-08-22T19:50:50.648Z,10.50
2018-08-22T19:53:19.115Z,9.07
2018-08-22T19:55:47.657Z,8.93
2018-08-22T19:58:20.347Z,9.00
2018-08-22T20:00:49.092Z,9.00
2018-08-22T20:03:21.861Z,8.63
2018-08-22T20:05:52.635Z,10.17
2018-08-22T20:08:26.328Z,10.07
2018-08-22T20:10:54.853Z,9.97
2018-08-22T20:13:23.489Z,9.10
2018-08-22T20:15:51.970Z,9.37
2018-08-22T20:18:20.414Z,8.73
2018-08-22T20:20:48.876Z,9.63
2018-08-22T20:23:17.605Z,9.17
2018-08-22T20:25:46.031Z,9.53
2018-08-22T20:28:14.613Z,9.30
2018-08-22T20:30:43.221Z,10.90
2018-08-22T20:33:11.923Z,9.57
2018-08-22T20:35:43.111Z,9.17
2018-08-22T20:38:18.244Z,8.50
2018-08-22T20:40:46.977Z,9.43
2018-08-22T20:43:29.819Z,8.90
2018-08-22T20:45:58.287Z,9.37
2018-08-22T20:48:26.762Z,9.37
2018-08-22T20:50:55.210Z,9.47
2018-08-22T20:53:23.629Z,9.57
2018-08-22T20:55:52.084Z,9.03
2018-08-22T20:58:23.504Z,9.13
2018-08-22T21:00:51.987Z,9.50
2018-08-22T21:03:20.454Z,9.30
2018-08-22T21:05:48.895Z,10.10
2018-08-22T21:08:17.390Z,9.87
2018-08-22T21:10:45.952Z,9.80
2018-08-22T21:13:18.622Z,9.73
2018-08-22T21:15:47.116Z,9.63
2018-08-22T21:18:15.640Z,9.93
2018-08-22T21:20:44.072Z,9.23
2018-08-22T21:23:12.623Z,9.27
2018-08-22T21:25:41.881Z,10.23
2018-08-22T21:28:10.397Z,10.07
2018-08-22T21:30:39.808Z,9.87
2018-08-22T21:33:08.283Z,10.03
2018-08-22T21:35:36.751Z,9.50
2018-08-22T21:38:09.476Z,9.20
2018-08-22T21:40:38.009Z,10.47
2018-08-22T21:43:06.497Z,9.63
2018-08-22T21:45:34.973Z,9.10
2018-08-22T21:48:14.178Z,9.37
2018-08-22T21:50:43.336Z,8.80
2018-08-22T21:53:11.771Z,9.47
2018-08-22T21:55:41.238Z,10.03
2018-08-22T21:58:10.219Z,9.17
2018-08-22T22:00:38.875Z,9.90
2018-08-22T22:03:08.043Z,9.50
2018-08-22T22:05:46.371Z,9.17
2018-08-22T22:08:14.777Z,9.60
2018-08-22T22:10:43.202Z,10.07
2018-08-22T22:13:12.135Z,9.17
2018-08-22T22:15:43.658Z,9.57
2018-08-22T22:18:12.097Z,9.53
2018-08-22T22:20:40.875Z,9.00
2018-08-22T22:23:09.353Z,9.20
2018-08-22T22:25:37.814Z,9.43
2018-08-22T22:28:06.284Z,8.90
2018-08-22T22:30:34.772Z,9.23
2018-08-22T22:33:03.214Z,9.33
2018-08-22T22:35:36.664Z,9.30
2018-08-22T22:38:12.105Z,9.73
2018-08-22T22:40:40.709Z,8.63
2018-08-22T22:43:11.915Z,10.60
2018-08-22T22:45:40.424Z,9.60
2018-08-22T22:48:08.825Z,10.20
2018-08-22T22:50:37.255Z,9.67
2018-08-22T22:53:06.104Z,9.43
2018-08-22T22:55:34.636Z,9.63
2018-08-22T22:58:03.516Z,9.40
2018-08-22T23:00:32.042Z,9.73
2018-08-22T23:03:06.381Z,9.50
2018-08-22T23:05:34.840Z,10.00
2018-08-22T23:08:03.541Z,9.80
2018-08-22T23:10:31.915Z,10.00
2018-08-22T23:13:00.354Z,10.07
2018-08-22T23:15:29.909Z,9.70
2018-08-22T23:18:00.752Z,9.67
2018-08-22T23:20:36.142Z,9.27
2018-08-22T23:23:10.137Z,9.33
2018-08-22T23:25:38.779Z,9.17
2018-08-22T23:28:07.189Z,9.43
2018-08-22T23:30:36.893Z,9.60
2018-08-22T23:33:06.170Z,9.77
2018-08-22T23:35:35.580Z,9.67
2018-08-22T23:38:06.028Z,8.87
2018-08-22T23:40:35.413Z,10.07
2018-08-22T23:43:03.935Z,9.23
2018-08-22T23:45:35.875Z,9.73
2018-08-22T23:48:05.207Z,9.17
2018-08-22T23:50:46.190Z,9.60
2018-08-22T23:53:14.563Z,9.47
2018-08-22T23:55:42.933Z,9.73
2018-08-22T23:58:11.355Z,9.97
